sensor_id;sensor_type;location;lat;lon;timestamp;temperature;humidity
55777;DHT22;54079;44.540;18.784;2023-04-01T00:00:57;15.90;66.40
55777;DHT22;54079;44.540;18.784;2023-04-01T00:03:24;15.90;67.00
55777;DHT22;54079;44.540;18.784;2023-04-01T00:05:51;15.80;67.90
55777;DHT22;54079;44.540;18.784;2023-04-01T00:08:17;15.60;68.70
55777;DHT22;54079;44.540;18.784;2023-04-01T00:10:43;15.50;69.30
55777;DHT22;54079;44.540;18.784;2023-04-01T00:13:10;15.60;69.40
55777;DHT22;54079;44.540;18.784;2023-04-01T00:15:36;15.60;69.10
55777;DHT22;54079;44.540;18.784;2023-04-01T00:18:02;15.50;69.40
55777;DHT22;54079;44.540;18.784;2023-04-01T00:20:28;15.50;69.50
55777;DHT22;54079;44.540;18.784;2023-04-01T00:22:54;15.40;69.30
55777;DHT22;54079;44.540;18.784;2023-04-01T00:25:21;15.50;69.30
55777;DHT22;54079;44.540;18.784;2023-04-01T00:27:47;15.40;69.50
55777;DHT22;54079;44.540;18.784;2023-04-01T00:30:13;15.50;69.20
55777;DHT22;54079;44.540;18.784;2023-04-01T00:32:39;15.40;69.10
55777;DHT22;54079;44.540;18.784;2023-04-01T00:35:06;15.50;69.00
55777;DHT22;54079;44.540;18.784;2023-04-01T00:37:35;15.60;69.10
55777;DHT22;54079;44.540;18.784;2023-04-01T00:40:01;15.70;70.10
55777;DHT22;54079;44.540;18.784;2023-04-01T00:42:27;15.40;69.70
55777;DHT22;54079;44.540;18.784;2023-04-01T00:44:55;15.30;69.80
55777;DHT22;54079;44.540;18.784;2023-04-01T00:47:22;15.30;70.00
55777;DHT22;54079;44.540;18.784;2023-04-01T00:49:51;15.50;70.10
55777;DHT22;54079;44.540;18.784;2023-04-01T00:52:22;15.50;70.10
55777;DHT22;54079;44.540;18.784;2023-04-01T00:54:49;15.50;69.00
55777;DHT22;54079;44.540;18.784;2023-04-01T00:57:32;15.40;68.40
55777;DHT22;54079;44.540;18.784;2023-04-01T00:59:59;15.40;68.20
55777;DHT22;54079;44.540;18.784;2023-04-01T01:02:25;15.40;68.00
55777;DHT22;54079;44.540;18.784;2023-04-01T01:04:51;15.50;69.60
55777;DHT22;54079;44.540;18.784;2023-04-01T01:12:53;15.40;70.30
55777;DHT22;54079;44.540;18.784;2023-04-01T01:18:35;15.50;70.10
55777;DHT22;54079;44.540;18.784;2023-04-01T01:32:19;14.30;79.10
55777;DHT22;54079;44.540;18.784;2023-04-01T01:37:31;13.50;90.30
55777;DHT22;54079;44.540;18.784;2023-04-01T01:40:09;13.10;95.10
55777;DHT22;54079;44.540;18.784;2023-04-01T01:42:38;12.80;98.50
55777;DHT22;54079;44.540;18.784;2023-04-01T01:45:07;12.70;99.50
55777;DHT22;54079;44.540;18.784;2023-04-01T01:47:34;12.70;99.90
55777;DHT22;54079;44.540;18.784;2023-04-01T01:50:01;12.70;99.90
55777;DHT22;54079;44.540;18.784;2023-04-01T01:52:29;12.70;99.90
55777;DHT22;54079;44.540;18.784;2023-04-01T01:54:57;12.60;99.90
55777;DHT22;54079;44.540;18.784;2023-04-01T01:57:32;12.60;99.90
55777;DHT22;54079;44.540;18.784;2023-04-01T02:00:06;12.60;99.90
55777;DHT22;54079;44.540;18.784;2023-04-01T02:02:40;12.60;99.90
55777;DHT22;54079;44.540;18.784;2023-04-01T02:05:10;12.40;99.90
55777;DHT22;54079;44.540;18.784;2023-04-01T02:07:43;12.30;99.90
55777;DHT22;54079;44.540;18.784;2023-04-01T02:10:13;12.20;99.90
55777;DHT22;54079;44.540;18.784;2023-04-01T02:12:42;12.10;99.90
55777;DHT22;54079;44.540;18.784;2023-04-01T02:15:12;12.00;99.90
55777;DHT22;54079;44.540;18.784;2023-04-01T02:17:43;11.40;99.90
55777;DHT22;54079;44.540;18.784;2023-04-01T02:20:19;11.30;99.90
55777;DHT22;54079;44.540;18.784;2023-04-01T02:22:50;11.30;99.90
55777;DHT22;54079;44.540;18.784;2023-04-01T02:25:23;11.20;99.90
55777;DHT22;54079;44.540;18.784;2023-04-01T02:27:51;11.20;99.90
55777;DHT22;54079;44.540;18.784;2023-04-01T02:30:18;11.40;99.90
55777;DHT22;54079;44.540;18.784;2023-04-01T02:32:45;11.40;99.90
55777;DHT22;54079;44.540;18.784;2023-04-01T02:35:14;11.50;99.90
55777;DHT22;54079;44.540;18.784;2023-04-01T02:37:42;11.60;99.90
55777;DHT22;54079;44.540;18.784;2023-04-01T02:40:11;11.50;99.90
55777;DHT22;54079;44.540;18.784;2023-04-01T02:42:38;11.50;99.90
55777;DHT22;54079;44.540;18.784;2023-04-01T02:45:04;11.60;99.90
55777;DHT22;54079;44.540;18.784;2023-04-01T02:47:30;11.70;99.90
55777;DHT22;54079;44.540;18.784;2023-04-01T02:49:57;11.80;99.90
55777;DHT22;54079;44.540;18.784;2023-04-01T02:52:26;11.90;99.90
55777;DHT22;54079;44.540;18.784;2023-04-01T02:54:53;12.10;99.90
55777;DHT22;54079;44.540;18.784;2023-04-01T02:57:19;12.10;99.90
55777;DHT22;54079;44.540;18.784;2023-04-01T02:59:45;12.20;99.90
55777;DHT22;54079;44.540;18.784;2023-04-01T03:02:11;12.30;99.90
55777;DHT22;54079;44.540;18.784;2023-04-01T03:04:37;12.30;99.90
55777;DHT22;54079;44.540;18.784;2023-04-01T03:07:03;12.30;99.90
55777;DHT22;54079;44.540;18.784;2023-04-01T03:09:29;12.40;99.90
55777;DHT22;54079;44.540;18.784;2023-04-01T03:11:55;12.40;99.90
55777;DHT22;54079;44.540;18.784;2023-04-01T03:14:21;12.60;99.90
55777;DHT22;54079;44.540;18.784;2023-04-01T03:16:47;12.60;99.90
55777;DHT22;54079;44.540;18.784;2023-04-01T03:19:13;12.70;99.90
55777;DHT22;54079;44.540;18.784;2023-04-01T03:21:40;12.60;99.90
55777;DHT22;54079;44.540;18.784;2023-04-01T03:24:06;12.60;99.90
55777;DHT22;54079;44.540;18.784;2023-04-01T03:26:33;12.70;99.90
55777;DHT22;54079;44.540;18.784;2023-04-01T03:29:00;12.50;99.90
55777;DHT22;54079;44.540;18.784;2023-04-01T03:31:27;12.60;99.90
55777;DHT22;54079;44.540;18.784;2023-04-01T03:33:52;12.60;99.90
55777;DHT22;54079;44.540;18.784;2023-04-01T03:36:18;12.60;99.90
55777;DHT22;54079;44.540;18.784;2023-04-01T03:38:45;12.50;99.90
55777;DHT22;54079;44.540;18.784;2023-04-01T03:41:15;12.60;99.90
55777;DHT22;54079;44.540;18.784;2023-04-01T03:43:41;12.60;99.90
55777;DHT22;54079;44.540;18.784;2023-04-01T03:46:07;12.50;99.90
55777;DHT22;54079;44.540;18.784;2023-04-01T03:48:33;12.60;99.90
55777;DHT22;54079;44.540;18.784;2023-04-01T03:50:59;12.50;99.90
55777;DHT22;54079;44.540;18.784;2023-04-01T03:53:25;12.50;99.90
55777;DHT22;54079;44.540;18.784;2023-04-01T03:55:52;12.40;99.90
55777;DHT22;54079;44.540;18.784;2023-04-01T03:58:19;12.40;99.90
55777;DHT22;54079;44.540;18.784;2023-04-01T04:00:45;12.30;99.90
55777;DHT22;54079;44.540;18.784;2023-04-01T04:03:11;12.20;99.90
55777;DHT22;54079;44.540;18.784;2023-04-01T04:05:45;12.00;99.90
55777;DHT22;54079;44.540;18.784;2023-04-01T04:08:11;11.90;99.90
55777;DHT22;54079;44.540;18.784;2023-04-01T04:10:37;11.80;99.90
55777;DHT22;54079;44.540;18.784;2023-04-01T04:13:03;11.90;99.90
55777;DHT22;54079;44.540;18.784;2023-04-01T04:15:29;11.90;99.90
55777;DHT22;54079;44.540;18.784;2023-04-01T04:17:55;12.00;99.90
55777;DHT22;54079;44.540;18.784;2023-04-01T04:20:21;11.90;99.90
55777;DHT22;54079;44.540;18.784;2023-04-01T04:22:47;11.80;99.90
55777;DHT22;54079;44.540;18.784;2023-04-01T04:25:13;11.70;99.90
55777;DHT22;54079;44.540;18.784;2023-04-01T04:27:39;11.80;99.90
55777;DHT22;54079;44.540;18.784;2023-04-01T04:30:05;11.80;99.90
55777;DHT22;54079;44.540;18.784;2023-04-01T04:32:32;11.90;99.90
55777;DHT22;54079;44.540;18.784;2023-04-01T04:34:58;11.90;99.90
55777;DHT22;54079;44.540;18.784;2023-04-01T04:37:24;11.70;99.90
55777;DHT22;54079;44.540;18.784;2023-04-01T04:39:51;11.60;99.90
55777;DHT22;54079;44.540;18.784;2023-04-01T04:42:17;11.50;99.90
55777;DHT22;54079;44.540;18.784;2023-04-01T04:44:43;11.50;99.90
55777;DHT22;54079;44.540;18.784;2023-04-01T04:47:09;11.40;99.90
55777;DHT22;54079;44.540;18.784;2023-04-01T04:49:35;11.40;99.90
55777;DHT22;54079;44.540;18.784;2023-04-01T04:52:01;11.60;99.90
55777;DHT22;54079;44.540;18.784;2023-04-01T04:54:27;11.70;99.90
55777;DHT22;54079;44.540;18.784;2023-04-01T04:56:53;11.90;99.90
55777;DHT22;54079;44.540;18.784;2023-04-01T04:59:19;12.00;99.90
55777;DHT22;54079;44.540;18.784;2023-04-01T05:01:45;12.00;99.90
55777;DHT22;54079;44.540;18.784;2023-04-01T05:04:11;12.10;99.90
55777;DHT22;54079;44.540;18.784;2023-04-01T05:06:37;12.20;99.90
55777;DHT22;54079;44.540;18.784;2023-04-01T05:09:03;12.30;99.90
55777;DHT22;54079;44.540;18.784;2023-04-01T05:11:29;12.40;99.90
55777;DHT22;54079;44.540;18.784;2023-04-01T05:13:55;12.60;99.90
55777;DHT22;54079;44.540;18.784;2023-04-01T05:16:21;12.70;99.90
55777;DHT22;54079;44.540;18.784;2023-04-01T05:18:47;12.70;99.90
55777;DHT22;54079;44.540;18.784;2023-04-01T05:21:14;12.80;99.90
55777;DHT22;54079;44.540;18.784;2023-04-01T05:23:40;13.00;99.90
55777;DHT22;54079;44.540;18.784;2023-04-01T05:26:09;13.20;99.90
55777;DHT22;54079;44.540;18.784;2023-04-01T05:28:35;13.40;99.90
55777;DHT22;54079;44.540;18.784;2023-04-01T05:31:02;13.60;99.90
55777;DHT22;54079;44.540;18.784;2023-04-01T05:33:30;13.70;99.90
55777;DHT22;54079;44.540;18.784;2023-04-01T05:35:56;13.70;99.90
55777;DHT22;54079;44.540;18.784;2023-04-01T05:38:30;13.90;99.90
55777;DHT22;54079;44.540;18.784;2023-04-01T05:41:00;13.80;99.90
55777;DHT22;54079;44.540;18.784;2023-04-01T05:43:26;13.90;99.90
55777;DHT22;54079;44.540;18.784;2023-04-01T05:45:52;13.90;99.90
55777;DHT22;54079;44.540;18.784;2023-04-01T05:48:18;13.60;99.90
55777;DHT22;54079;44.540;18.784;2023-04-01T05:50:43;13.10;99.90
55777;DHT22;54079;44.540;18.784;2023-04-01T05:53:09;12.90;99.90
55777;DHT22;54079;44.540;18.784;2023-04-01T05:55:36;12.40;99.90
55777;DHT22;54079;44.540;18.784;2023-04-01T05:58:02;12.30;99.90
55777;DHT22;54079;44.540;18.784;2023-04-01T06:00:28;12.10;99.90
55777;DHT22;54079;44.540;18.784;2023-04-01T06:02:54;12.10;99.90
55777;DHT22;54079;44.540;18.784;2023-04-01T06:05:22;12.00;99.90
55777;DHT22;54079;44.540;18.784;2023-04-01T06:07:52;12.20;99.90
55777;DHT22;54079;44.540;18.784;2023-04-01T06:10:21;12.40;99.90
55777;DHT22;54079;44.540;18.784;2023-04-01T06:15:40;12.60;99.90
55777;DHT22;54079;44.540;18.784;2023-04-01T06:32:27;13.70;99.90
55777;DHT22;54079;44.540;18.784;2023-04-01T06:35:17;13.70;99.90
55777;DHT22;54079;44.540;18.784;2023-04-01T06:40:57;13.60;99.90
55777;DHT22;54079;44.540;18.784;2023-04-01T06:49:29;13.10;99.90
55777;DHT22;54079;44.540;18.784;2023-04-01T06:54:51;12.30;99.90
55777;DHT22;54079;44.540;18.784;2023-04-01T06:57:34;11.90;99.90
55777;DHT22;54079;44.540;18.784;2023-04-01T07:00:05;11.90;99.90
55777;DHT22;54079;44.540;18.784;2023-04-01T07:02:54;11.80;99.90
55777;DHT22;54079;44.540;18.784;2023-04-01T07:05:23;11.70;99.90
55777;DHT22;54079;44.540;18.784;2023-04-01T07:07:53;11.90;99.90
55777;DHT22;54079;44.540;18.784;2023-04-01T07:13:04;12.00;99.90
55777;DHT22;54079;44.540;18.784;2023-04-01T07:15:38;11.90;99.90
55777;DHT22;54079;44.540;18.784;2023-04-01T07:18:30;12.20;99.90
55777;DHT22;54079;44.540;18.784;2023-04-01T07:20:58;12.50;99.90
55777;DHT22;54079;44.540;18.784;2023-04-01T07:23:33;12.60;99.90
55777;DHT22;54079;44.540;18.784;2023-04-01T07:26:19;12.80;99.90
55777;DHT22;54079;44.540;18.784;2023-04-01T07:28:51;12.60;99.90
55777;DHT22;54079;44.540;18.784;2023-04-01T07:31:43;12.70;99.90
55777;DHT22;54079;44.540;18.784;2023-04-01T07:37:02;12.70;99.90
55777;DHT22;54079;44.540;18.784;2023-04-01T07:39:38;12.80;99.90
55777;DHT22;54079;44.540;18.784;2023-04-01T07:48:03;12.30;99.90
55777;DHT22;54079;44.540;18.784;2023-04-01T07:50:37;12.10;99.90
55777;DHT22;54079;44.540;18.784;2023-04-01T07:53:16;12.20;99.90
55777;DHT22;54079;44.540;18.784;2023-04-01T07:56:07;12.20;99.90
55777;DHT22;54079;44.540;18.784;2023-04-01T07:59:10;12.30;99.90
55777;DHT22;54079;44.540;18.784;2023-04-01T08:05:00;12.40;99.90
55777;DHT22;54079;44.540;18.784;2023-04-01T08:07:33;12.40;99.90
55777;DHT22;54079;44.540;18.784;2023-04-01T08:10:22;12.40;99.90
55777;DHT22;54079;44.540;18.784;2023-04-01T08:13:03;12.40;99.90
55777;DHT22;54079;44.540;18.784;2023-04-01T08:15:56;12.40;99.90
55777;DHT22;54079;44.540;18.784;2023-04-01T08:21:24;12.50;99.90
55777;DHT22;54079;44.540;18.784;2023-04-01T08:23:52;12.60;99.90
55777;DHT22;54079;44.540;18.784;2023-04-01T08:26:41;12.70;99.90
55777;DHT22;54079;44.540;18.784;2023-04-01T08:29:17;12.70;99.90
55777;DHT22;54079;44.540;18.784;2023-04-01T08:34:34;12.60;99.90
55777;DHT22;54079;44.540;18.784;2023-04-01T08:37:08;12.60;99.90
55777;DHT22;54079;44.540;18.784;2023-04-01T08:39:46;12.50;99.90
55777;DHT22;54079;44.540;18.784;2023-04-01T08:50:36;12.40;99.90
55777;DHT22;54079;44.540;18.784;2023-04-01T09:07:54;12.60;99.90
55777;DHT22;54079;44.540;18.784;2023-04-01T09:10:11;12.60;99.90
55777;DHT22;54079;44.540;18.784;2023-04-01T09:22:08;12.60;99.90
55777;DHT22;54079;44.540;18.784;2023-04-01T09:28:02;12.50;99.90
55777;DHT22;54079;44.540;18.784;2023-04-01T09:36:04;12.30;99.90
55777;DHT22;54079;44.540;18.784;2023-04-01T09:41:32;12.20;99.00
55777;DHT22;54079;44.540;18.784;2023-04-01T09:49:32;11.90;99.60
55777;DHT22;54079;44.540;18.784;2023-04-01T09:52:09;11.30;99.90
55777;DHT22;54079;44.540;18.784;2023-04-01T10:00:53;10.90;99.90
55777;DHT22;54079;44.540;18.784;2023-04-01T10:31:25;12.30;99.90
55777;DHT22;54079;44.540;18.784;2023-04-01T10:34:10;12.40;99.90
55777;DHT22;54079;44.540;18.784;2023-04-01T10:36:48;12.60;99.90
55777;DHT22;54079;44.540;18.784;2023-04-01T10:51:29;12.70;98.60
55777;DHT22;54079;44.540;18.784;2023-04-01T10:54:40;12.70;98.70
55777;DHT22;54079;44.540;18.784;2023-04-01T11:11:02;13.30;98.60
55777;DHT22;54079;44.540;18.784;2023-04-01T11:33:47;14.20;96.50
55777;DHT22;54079;44.540;18.784;2023-04-01T11:42:09;14.10;96.40
55777;DHT22;54079;44.540;18.784;2023-04-01T11:47:47;13.60;96.90
55777;DHT22;54079;44.540;18.784;2023-04-01T11:50:36;13.60;97.50
55777;DHT22;54079;44.540;18.784;2023-04-01T11:56:24;14.00;96.90
55777;DHT22;54079;44.540;18.784;2023-04-01T11:59:18;14.00;96.50
55777;DHT22;54079;44.540;18.784;2023-04-01T12:05:43;14.10;95.40
55777;DHT22;54079;44.540;18.784;2023-04-01T12:16:29;14.10;95.60
55777;DHT22;54079;44.540;18.784;2023-04-01T12:21:52;14.10;95.20
55777;DHT22;54079;44.540;18.784;2023-04-01T12:24:49;14.00;95.30
55777;DHT22;54079;44.540;18.784;2023-04-01T12:27:52;13.90;94.80
55777;DHT22;54079;44.540;18.784;2023-04-01T12:36:22;13.80;95.80
55777;DHT22;54079;44.540;18.784;2023-04-01T13:29:28;15.70;93.60
55777;DHT22;54079;44.540;18.784;2023-04-01T13:32:24;16.40;92.20
55777;DHT22;54079;44.540;18.784;2023-04-01T13:35:08;16.60;91.70
55777;DHT22;54079;44.540;18.784;2023-04-01T13:40:33;17.20;90.70
55777;DHT22;54079;44.540;18.784;2023-04-01T13:53:59;17.00;88.40
55777;DHT22;54079;44.540;18.784;2023-04-01T14:08:06;17.30;87.60
55777;DHT22;54079;44.540;18.784;2023-04-01T14:10:46;17.30;83.00
55777;DHT22;54079;44.540;18.784;2023-04-01T14:25:21;16.30;87.20
55777;DHT22;54079;44.540;18.784;2023-04-01T14:33:41;16.00;88.30
55777;DHT22;54079;44.540;18.784;2023-04-01T14:45:06;15.70;88.30
55777;DHT22;54079;44.540;18.784;2023-04-01T14:47:37;15.90;88.90
55777;DHT22;54079;44.540;18.784;2023-04-01T14:50:12;16.20;87.30
55777;DHT22;54079;44.540;18.784;2023-04-01T14:52:48;16.10;85.70
55777;DHT22;54079;44.540;18.784;2023-04-01T14:55:34;16.30;83.30
55777;DHT22;54079;44.540;18.784;2023-04-01T14:58:17;16.50;83.30
55777;DHT22;54079;44.540;18.784;2023-04-01T15:03:36;17.00;80.60
55777;DHT22;54079;44.540;18.784;2023-04-01T15:09:02;16.70;82.00
55777;DHT22;54079;44.540;18.784;2023-04-01T15:22:48;15.60;83.30
55777;DHT22;54079;44.540;18.784;2023-04-01T15:30:36;15.30;83.00
55777;DHT22;54079;44.540;18.784;2023-04-01T15:44:53;14.90;83.30
55777;DHT22;54079;44.540;18.784;2023-04-01T16:00:51;14.60;86.40
55777;DHT22;54079;44.540;18.784;2023-04-01T16:06:20;14.60;86.00
55777;DHT22;54079;44.540;18.784;2023-04-01T16:13:59;14.60;87.40
55777;DHT22;54079;44.540;18.784;2023-04-01T16:19:24;14.50;86.00
55777;DHT22;54079;44.540;18.784;2023-04-01T16:22:49;14.40;86.90
55777;DHT22;54079;44.540;18.784;2023-04-01T16:31:06;14.30;87.60
55777;DHT22;54079;44.540;18.784;2023-04-01T16:33:58;14.30;86.70
55777;DHT22;54079;44.540;18.784;2023-04-01T16:39:53;14.10;86.70
55777;DHT22;54079;44.540;18.784;2023-04-01T16:51:23;13.80;88.80
55777;DHT22;54079;44.540;18.784;2023-04-01T16:54:00;13.60;90.60
55777;DHT22;54079;44.540;18.784;2023-04-01T16:56:39;13.50;90.80
55777;DHT22;54079;44.540;18.784;2023-04-01T16:59:28;13.30;90.80
55777;DHT22;54079;44.540;18.784;2023-04-01T17:05:16;13.10;90.50
55777;DHT22;54079;44.540;18.784;2023-04-01T17:10:29;12.90;90.00
55777;DHT22;54079;44.540;18.784;2023-04-01T17:21:15;11.90;92.70
55777;DHT22;54079;44.540;18.784;2023-04-01T17:23:53;11.70;92.70
55777;DHT22;54079;44.540;18.784;2023-04-01T17:26:43;11.60;94.10
55777;DHT22;54079;44.540;18.784;2023-04-01T17:32:01;11.10;98.50
55777;DHT22;54079;44.540;18.784;2023-04-01T17:34:55;11.00;98.40
55777;DHT22;54079;44.540;18.784;2023-04-01T17:38:02;10.80;99.60
55777;DHT22;54079;44.540;18.784;2023-04-01T17:45:57;10.90;99.90
55777;DHT22;54079;44.540;18.784;2023-04-01T17:56:34;10.70;99.60
55777;DHT22;54079;44.540;18.784;2023-04-01T17:59:22;10.70;99.90
55777;DHT22;54079;44.540;18.784;2023-04-01T18:02:13;10.60;99.90
55777;DHT22;54079;44.540;18.784;2023-04-01T18:05:16;10.50;99.90
55777;DHT22;54079;44.540;18.784;2023-04-01T18:11:08;10.50;99.90
55777;DHT22;54079;44.540;18.784;2023-04-01T18:16:30;10.20;99.90
55777;DHT22;54079;44.540;18.784;2023-04-01T18:21:58;10.30;99.90
55777;DHT22;54079;44.540;18.784;2023-04-01T18:24:33;10.50;99.90
55777;DHT22;54079;44.540;18.784;2023-04-01T18:27:16;10.70;99.90
55777;DHT22;54079;44.540;18.784;2023-04-01T18:29:55;10.90;99.90
55777;DHT22;54079;44.540;18.784;2023-04-01T18:38:15;10.80;99.90
55777;DHT22;54079;44.540;18.784;2023-04-01T18:46:21;10.70;99.90
55777;DHT22;54079;44.540;18.784;2023-04-01T18:51:49;10.60;99.10
55777;DHT22;54079;44.540;18.784;2023-04-01T18:57:18;10.60;99.90
55777;DHT22;54079;44.540;18.784;2023-04-01T19:02:40;10.70;99.90
55777;DHT22;54079;44.540;18.784;2023-04-01T19:05:53;10.80;99.80
55777;DHT22;54079;44.540;18.784;2023-04-01T19:08:29;10.70;99.50
55777;DHT22;54079;44.540;18.784;2023-04-01T19:11:30;10.90;99.70
55777;DHT22;54079;44.540;18.784;2023-04-01T19:27:52;11.00;97.60
55777;DHT22;54079;44.540;18.784;2023-04-01T19:33:43;10.80;99.70
55777;DHT22;54079;44.540;18.784;2023-04-01T19:36:54;10.70;99.80
55777;DHT22;54079;44.540;18.784;2023-04-01T19:39:53;10.40;99.90
55777;DHT22;54079;44.540;18.784;2023-04-01T19:48:11;10.10;99.90
55777;DHT22;54079;44.540;18.784;2023-04-01T20:01:06;9.80;99.90
55777;DHT22;54079;44.540;18.784;2023-04-01T20:03:54;9.80;99.90
55777;DHT22;54079;44.540;18.784;2023-04-01T20:06:35;9.70;99.90
55777;DHT22;54079;44.540;18.784;2023-04-01T20:14:51;9.50;99.90
55777;DHT22;54079;44.540;18.784;2023-04-01T20:17:22;9.40;99.90
55777;DHT22;54079;44.540;18.784;2023-04-01T20:20:03;9.20;99.90
55777;DHT22;54079;44.540;18.784;2023-04-01T20:25:31;9.10;99.90
55777;DHT22;54079;44.540;18.784;2023-04-01T20:36:05;8.90;99.90
55777;DHT22;54079;44.540;18.784;2023-04-01T20:42:16;8.90;99.90
55777;DHT22;54079;44.540;18.784;2023-04-01T20:47:42;8.90;99.90
55777;DHT22;54079;44.540;18.784;2023-04-01T20:58:58;8.60;99.90
55777;DHT22;54079;44.540;18.784;2023-04-01T21:26:45;8.80;99.90
55777;DHT22;54079;44.540;18.784;2023-04-01T21:34:34;8.60;99.90
55777;DHT22;54079;44.540;18.784;2023-04-01T21:40:00;8.40;99.90
55777;DHT22;54079;44.540;18.784;2023-04-01T21:45:08;8.40;99.90
55777;DHT22;54079;44.540;18.784;2023-04-01T22:00:38;8.10;99.90
55777;DHT22;54079;44.540;18.784;2023-04-01T22:06:43;8.00;99.90
55777;DHT22;54079;44.540;18.784;2023-04-01T22:11:54;8.10;99.90
55777;DHT22;54079;44.540;18.784;2023-04-01T22:14:28;8.00;99.90
55777;DHT22;54079;44.540;18.784;2023-04-01T22:17:08;8.00;99.90
55777;DHT22;54079;44.540;18.784;2023-04-01T22:22:30;8.00;99.90
55777;DHT22;54079;44.540;18.784;2023-04-01T22:28:05;8.00;99.90
55777;DHT22;54079;44.540;18.784;2023-04-01T22:31:05;7.90;99.90
55777;DHT22;54079;44.540;18.784;2023-04-01T22:54:07;7.50;99.90
55777;DHT22;54079;44.540;18.784;2023-04-01T22:56:42;7.60;99.90
55777;DHT22;54079;44.540;18.784;2023-04-01T23:01:55;7.50;99.90
55777;DHT22;54079;44.540;18.784;2023-04-01T23:04:25;7.60;99.90
55777;DHT22;54079;44.540;18.784;2023-04-01T23:06:59;7.60;99.90
55777;DHT22;54079;44.540;18.784;2023-04-01T23:09:31;7.50;99.90
55777;DHT22;54079;44.540;18.784;2023-04-01T23:14:41;7.50;99.90
55777;DHT22;54079;44.540;18.784;2023-04-01T23:17:31;7.50;99.90
55777;DHT22;54079;44.540;18.784;2023-04-01T23:22:40;7.50;99.90
55777;DHT22;54079;44.540;18.784;2023-04-01T23:33:29;7.70;99.90
55777;DHT22;54079;44.540;18.784;2023-04-01T23:36:30;7.60;99.90
55777;DHT22;54079;44.540;18.784;2023-04-01T23:38:49;7.60;99.90
55777;DHT22;54079;44.540;18.784;2023-04-01T23:41:30;7.50;99.90
55777;DHT22;54079;44.540;18.784;2023-04-01T23:44:01;7.50;99.90
55777;DHT22;54079;44.540;18.784;2023-04-01T23:46:29;7.40;99.90
55777;DHT22;54079;44.540;18.784;2023-04-01T23:48:56;7.40;99.90
55777;DHT22;54079;44.540;18.784;2023-04-01T23:51:23;7.40;99.90
55777;DHT22;54079;44.540;18.784;2023-04-01T23:54:03;7.30;99.90
55777;DHT22;54079;44.540;18.784;2023-04-01T23:56:43;7.20;99.90
55777;DHT22;54079;44.540;18.784;2023-04-01T23:59:38;7.20;99.90
